Flight Track Log - Related Links

Times and Time Zones

All times are in EST time to prevent confusion due to time zone crossing. See the XOJ552 flight status page for this flight to view local times or setup timezone preferences in your user account.

Time Position Orientation Groundspeed Altitude Reporting Facility
EST Latitude Longitude Course Direction KTS MPH feet Rate Location/Type
Thu 03:52:21 PM 37.8306 -89.1369 322° Northwest 238 274 10,100  Level Kansas City Center
Thu 03:53:25 PM 37.8958 -89.1956 325° Northwest 291 335 13,600 3,194 Climbing Kansas City Center
Thu 03:54:25 PM 37.9764 -89.2664 325° Northwest 349 402 16,700 3,000 Climbing Kansas City Center
Thu 03:55:27 PM 38.0847 -89.3147 341° North 388 447 19,700 1,610 Climbing Kansas City Center
Thu 03:56:28 PM 38.1781 -89.3331 351° North 399 459 20,000 143 Climbing Kansas City Center
Thu 03:57:33 PM 38.3053 -89.3597 351° North 390 449 20,000  Level Kansas City Center
Thu 03:58:33 PM 38.4153 -89.3814 351° North 399 459 20,000  Level Kansas City Center
Thu 03:59:34 PM 38.5258 -89.4039 351° North 403 464 20,000  Level Kansas City Center
Thu 04:00:38 PM 38.6331 -89.4261 351° North 394 453 20,000  Level Kansas City Center
Thu 04:01:38 PM 38.7364 -89.4472 351° North 383 441 20,000  Level Kansas City Center
Thu 04:02:42 PM 38.8403 -89.4681 351° North 381 438 20,000  Level Kansas City Center
Thu 04:03:44 PM 38.9653 -89.4933 351° North 381 438 20,000  Level Kansas City Center
Thu 04:04:44 PM 39.0686 -89.5164 350° North 380 437 20,000  Level Kansas City Center
Thu 04:05:48 PM 39.1708 -89.5372 351° North 375 432 20,000  Level Kansas City Center
Thu 04:06:48 PM 39.2744 -89.5578 351° North 378 435 20,000  Level Kansas City Center
Thu 04:07:52 PM 39.3769 -89.5800 350° North 376 433 20,000  Level Kansas City Center
Thu 04:08:52 PM 39.5000 -89.6044 351° North 374 430 20,000 -97 Level Kansas City Center
Thu 04:09:56 PM 39.6044 -89.6267 351° North 379 436 19,800 -864 Descending Kansas City Center
Thu 04:10:57 PM 39.7075 -89.6483 351° North 377 434 18,200 -1,536 Descending Kansas City Center
Thu 04:12:01 PM 39.8039 -89.6694 350° North 362 417 16,600 -1,500 Descending Kansas City Center
Thu 04:13:01 PM 39.9042 -89.6883 352° North 362 417 15,100 -1,983 Descending Kansas City Center
Thu 04:14:02 PM 40.0264 -89.7042 354° North 366 421 12,600 -1,905 Descending Kansas City Center
Thu 04:15:07 PM 40.1167 -89.6797 12° North 346 398 11,100 -1,500 Descending Kansas City Center
Thu 04:15:54 PM 40.1825 -89.6564 15° North 325 374 9,800 -1,667 Descending Chicago Center
Thu 04:16:55 PM 40.2611 -89.6356 11° North 306 352 8,100 -878 Descending Chicago Center
Thu 04:17:57 PM 40.3364 -89.6147 12° North 291 335 8,000 -293 Descending Chicago Center
Thu 04:18:58 PM 40.4108 -89.5928 13° North 282 325 7,500 -1,268 Descending Chicago Center
Thu 04:20:00 PM 40.4850 -89.5756 10° North 276 318 5,400 -1,210 Descending Chicago Center
Thu 04:21:02 PM 40.5561 -89.5269 27° Northeast 264 304 5,000 -195 Descending Chicago Center
Thu 04:22:03 PM 40.6036 -89.4639 45° Northeast 251 289 5,000 -49 Level Chicago Center
Thu 04:23:05 PM 40.6569 -89.4244 29° Northeast 245 282 4,900 -242 Descending Chicago Center
Thu 04:24:07 PM 40.7158 -89.4097 11° North 225 259 4,500 -878 Descending Chicago Center
Thu 04:25:08 PM 40.7678 -89.4300 344° North 213 245 3,100 -976 Descending Chicago Center
Thu 04:26:10 PM 40.8083 -89.4778 318° Northwest 202 232 2,500 -290 Descending Chicago Center
Thu 04:27:12 PM 40.8003 -89.5333 259° West 172 198 2,500 -49 Level Chicago Center
Thu 04:28:13 PM 40.7708 -89.5714 224° Southwest 137 158 2,400  Descending Chicago Center
Thu 04:29:15 PM 40.7467 -89.5972 219° Southwest 120 138 2,500 -194 Climbing Chicago Center
Thu 04:30:17 PM 40.7228 -89.6225 219° Southwest 114 131 2,000 -488 Descending Chicago Center
Thu 04:31:18 PM 40.7028 -89.6428 218° Southwest 102 117 1,500 -488 Descending Chicago Center
Thu 04:32:20 PM 40.6794 -89.6661 217° Southwest 101 116 1,000 -387 Descending Chicago Center
Thu 04:33:22 PM 40.6578 -89.6894 219° Southwest 103 119 700 -290 Descending Chicago Center

Login

Don't have an account? Register now (free) for customized features, flight alerts, and more!